Time;durP1;ratioP1;P1;durP2;ratioP2;P2;SDS_P1;SDS_P2;PMS_P1;PMS_P2;Temp;Humidity;BMP_temperature;BMP_pressure;BME280_temperature;BME280_humidity;BME280_pressure;Samples;Min_cycle;Max_cycle;Signal;HPM_P1;HPM_P2
2022/12/16 00:01:17;;;;;;;22.83;15.05;;;;;6.60;100728.00;;;;5079422;28;20190;-74
2022/12/16 00:03:48;;;;;;;24.30;15.65;;;;;6.60;100747.00;;;;5086216;28;20198;-74
2022/12/16 00:06:16;;;;;;;20.83;14.23;;;;;6.60;100738.00;;;;5075730;28;20194;-74
2022/12/16 00:08:43;;;;;;;22.05;14.73;;;;;6.50;100748.00;;;;5069043;28;20202;-74
2022/12/16 00:11:12;;;;;;;21.88;15.55;;;;;6.50;100751.00;;;;5081359;28;20691;-74
2022/12/16 00:13:40;;;;;;;21.08;14.38;;;;;6.50;100748.00;;;;5075854;28;20219;-73
2022/12/16 00:16:09;;;;;;;21.63;13.85;;;;;6.40;100752.00;;;;5069318;28;20199;-74
2022/12/16 00:18:37;;;;;;;19.83;13.18;;;;;6.40;100754.00;;;;5070912;28;20203;-74
2022/12/16 00:21:05;;;;;;;22.30;14.88;;;;;6.40;100743.00;;;;5070517;28;20221;-74
2022/12/16 00:23:33;;;;;;;23.90;15.23;;;;;6.30;100752.00;;;;5080113;28;20200;-73
2022/12/16 00:26:00;;;;;;;20.20;14.20;;;;;6.30;100756.00;;;;5078484;28;20201;-73
2022/12/16 00:28:29;;;;;;;22.02;14.40;;;;;6.20;100752.00;;;;5081251;28;20241;-73
2022/12/16 00:30:57;;;;;;;21.83;14.77;;;;;6.20;100748.00;;;;5074529;28;20566;-73
2022/12/16 00:33:26;;;;;;;22.67;13.98;;;;;6.20;100748.00;;;;5088408;28;20214;-73
2022/12/16 00:35:54;;;;;;;21.85;14.70;;;;;6.10;100760.00;;;;5084655;28;20227;-73
2022/12/16 00:38:22;;;;;;;20.98;13.32;;;;;6.10;100764.00;;;;5072492;28;20199;-74
2022/12/16 00:40:50;;;;;;;22.80;15.15;;;;;6.10;100758.00;;;;5067988;28;20242;-73
2022/12/16 00:43:17;;;;;;;20.85;14.35;;;;;6.10;100762.00;;;;5069522;28;20195;-74
2022/12/16 00:45:46;;;;;;;19.38;13.00;;;;;6.00;100764.00;;;;5083829;28;20202;-74
2022/12/16 00:48:13;;;;;;;22.88;15.32;;;;;6.00;100766.00;;;;5076400;28;20264;-74
2022/12/16 00:50:41;;;;;;;21.80;14.00;;;;;6.00;100768.00;;;;5078603;28;20190;-74
2022/12/16 00:53:08;;;;;;;19.90;13.82;;;;;6.00;100764.00;;;;5070908;28;20186;-73
2022/12/16 00:55:35;;;;;;;20.15;14.82;;;;;5.90;100762.00;;;;5077576;28;20665;-74
2022/12/16 00:58:02;;;;;;;23.70;15.05;;;;;5.90;100762.00;;;;5076713;28;20219;-73
2022/12/16 01:00:30;;;;;;;21.98;14.88;;;;;5.90;100770.00;;;;5075555;28;20222;-73
2022/12/16 01:02:59;;;;;;;18.67;13.85;;;;;5.90;100777.00;;;;5076614;28;20198;-73
2022/12/16 01:05:26;;;;;;;20.27;13.65;;;;;5.80;100775.00;;;;5074129;28;21062;-73
2022/12/16 01:07:54;;;;;;;19.13;13.52;;;;;5.80;100780.00;;;;5078072;28;20191;-73
2022/12/16 01:10:22;;;;;;;19.65;13.32;;;;;5.80;100775.00;;;;5077158;28;20194;-73
2022/12/16 01:12:49;;;;;;;20.27;14.75;;;;;5.80;100783.00;;;;5073885;28;20693;-73
2022/12/16 01:15:18;;;;;;;20.55;14.30;;;;;5.80;100785.00;;;;5072360;28;20195;-73
2022/12/16 01:17:45;;;;;;;20.33;13.43;;;;;5.80;100792.00;;;;5068486;28;21468;-73
2022/12/16 01:20:14;;;;;;;23.15;15.80;;;;;5.80;100796.00;;;;5080786;28;20222;-73
2022/12/16 01:22:42;;;;;;;25.67;15.50;;;;;5.80;100807.00;;;;5079606;28;20640;-73
2022/12/16 01:25:11;;;;;;;22.60;14.50;;;;;5.80;100802.00;;;;5071329;28;20677;-73
2022/12/16 01:27:39;;;;;;;21.63;15.10;;;;;5.80;100808.00;;;;5075270;28;20535;-74
2022/12/16 01:30:07;;;;;;;21.48;15.18;;;;;5.80;100811.00;;;;5072485;28;20199;-73
2022/12/16 01:32:35;;;;;;;21.40;14.50;;;;;5.80;100816.00;;;;5075444;28;20209;-73
2022/12/16 01:35:02;;;;;;;21.88;14.52;;;;;5.80;100814.00;;;;5075672;28;20197;-73
2022/12/16 01:37:31;;;;;;;21.92;14.40;;;;;5.80;100814.00;;;;5077066;28;20722;-73
2022/12/16 01:39:58;;;;;;;23.92;14.48;;;;;5.90;100819.00;;;;5082663;28;20218;-73
2022/12/16 01:42:27;;;;;;;21.42;15.07;;;;;5.90;100829.00;;;;5083021;28;20191;-74
2022/12/16 01:44:55;;;;;;;25.02;15.82;;;;;5.90;100826.00;;;;5075812;28;20209;-73
2022/12/16 01:47:26;;;;;;;22.67;14.80;;;;;5.90;100831.00;;;;5079070;28;20202;-73
2022/12/16 01:49:59;;;;;;;26.65;15.38;;;;;6.00;100831.00;;;;5078685;28;20652;-73
2022/12/16 01:52:32;;;;;;;22.80;15.45;;;;;6.00;100830.00;;;;5079112;28;20194;-73
2022/12/16 01:55:02;;;;;;;22.00;14.88;;;;;6.10;100824.00;;;;5077516;28;20202;-73
2022/12/16 01:57:36;;;;;;;25.23;16.27;;;;;6.10;100820.00;;;;5082013;28;20194;-73
2022/12/16 02:00:06;;;;;;;22.95;15.85;;;;;6.10;100828.00;;;;5078513;28;20629;-73
2022/12/16 02:02:33;;;;;;;21.95;14.90;;;;;6.10;100833.00;;;;5069833;28;20634;-74
2022/12/16 02:07:58;;;;;;;23.55;14.68;;;;;6.10;100835.00;;;;5073211;28;20307;-74
2022/12/16 02:10:33;;;;;;;22.35;13.95;;;;;6.10;100844.00;;;;5071234;28;20467;-74
2022/12/16 02:13:06;;;;;;;22.00;14.50;;;;;6.20;100834.00;;;;5076319;28;20206;-72
2022/12/16 02:15:41;;;;;;;20.55;13.52;;;;;6.20;100848.00;;;;5080252;28;20191;-72
2022/12/16 02:18:17;;;;;;;19.60;13.43;;;;;6.20;100844.00;;;;5073991;28;20194;-72
2022/12/16 02:21:18;;;;;;;20.70;14.65;;;;;6.20;100846.00;;;;5073158;28;20707;-72
2022/12/16 02:24:20;;;;;;;19.35;13.20;;;;;6.20;100852.00;;;;5070639;28;20574;-72
2022/12/16 02:27:19;;;;;;;18.90;12.73;;;;;6.30;100867.00;;;;5061514;28;20213;-72
2022/12/16 02:30:15;;;;;;;21.80;13.68;;;;;6.30;100853.00;;;;5067320;28;20210;-72
2022/12/16 02:32:58;;;;;;;21.55;14.75;;;;;6.30;100866.00;;;;5063321;28;20205;-72
2022/12/16 02:35:32;;;;;;;21.90;14.68;;;;;6.40;100873.00;;;;5076522;28;20199;-72
2022/12/16 02:38:11;;;;;;;22.45;14.52;;;;;6.40;100878.00;;;;5070847;28;20189;-72
2022/12/16 02:40:44;;;;;;;24.88;14.00;;;;;6.50;100879.00;;;;5073448;28;20223;-72
2022/12/16 02:43:21;;;;;;;21.65;14.38;;;;;6.50;100878.00;;;;5070125;28;20191;-72
2022/12/16 02:45:48;;;;;;;23.90;15.45;;;;;6.60;100878.00;;;;5074068;28;20194;-73
2022/12/16 02:48:17;;;;;;;22.67;15.00;;;;;6.60;100873.00;;;;5090446;28;20194;-73
2022/12/16 02:50:48;;;;;;;20.83;14.80;;;;;6.60;100887.00;;;;5084174;28;20228;-73
2022/12/16 02:53:17;;;;;;;23.92;15.52;;;;;6.60;100887.00;;;;5082591;28;20231;-72
2022/12/16 02:55:55;;;;;;;23.42;14.77;;;;;6.60;100885.00;;;;5083594;28;20508;-73
2022/12/16 02:58:28;;;;;;;20.35;14.57;;;;;6.70;100882.00;;;;5077654;28;20198;-73
2022/12/16 03:01:04;;;;;;;22.63;14.80;;;;;6.70;100883.00;;;;5076374;28;20689;-72
2022/12/16 03:03:39;;;;;;;23.67;15.65;;;;;6.70;100885.00;;;;5084727;28;20644;-72
2022/12/16 03:06:09;;;;;;;22.38;14.82;;;;;6.80;100893.00;;;;5083405;28;20672;-72
2022/12/16 03:08:39;;;;;;;24.25;16.45;;;;;6.80;100901.00;;;;5078475;28;20198;-72
2022/12/16 03:11:08;;;;;;;21.67;13.82;;;;;6.80;100908.00;;;;5082405;28;20194;-72
2022/12/16 03:13:41;;;;;;;20.13;14.23;;;;;6.80;100909.00;;;;5083242;28;20295;-73
2022/12/16 03:16:12;;;;;;;22.15;14.30;;;;;6.90;100921.00;;;;5082155;28;20198;-72
2022/12/16 03:18:44;;;;;;;22.02;15.00;;;;;6.90;100918.00;;;;5074288;28;20191;-73
2022/12/16 03:21:12;;;;;;;19.67;13.23;;;;;6.90;100923.00;;;;5072726;28;20218;-72
2022/12/16 03:23:44;;;;;;;19.27;12.60;;;;;6.90;100924.00;;;;5077102;28;20194;-73
2022/12/16 03:26:16;;;;;;;18.13;11.38;;;;;6.90;100931.00;;;;5077782;28;20195;-72
2022/12/16 03:28:49;;;;;;;15.25;10.10;;;;;7.00;100938.00;;;;5075862;28;20190;-72
2022/12/16 03:31:26;;;;;;;14.40;9.48;;;;;7.00;100932.00;;;;5075551;28;20273;-73
2022/12/16 03:34:00;;;;;;;15.32;9.35;;;;;7.00;100936.00;;;;5073536;28;20601;-73
2022/12/16 03:36:29;;;;;;;13.85;9.45;;;;;7.10;100933.00;;;;5080093;28;20222;-73
2022/12/16 03:38:58;;;;;;;13.18;8.85;;;;;7.10;100948.00;;;;5078687;28;20680;-73
2022/12/16 03:41:26;;;;;;;14.27;9.52;;;;;7.20;100944.00;;;;5082107;28;20227;-73
2022/12/16 03:43:54;;;;;;;13.88;9.80;;;;;7.20;100948.00;;;;5081271;28;20202;-72
2022/12/16 03:46:21;;;;;;;14.98;10.07;;;;;7.20;100954.00;;;;5083909;28;20668;-73
2022/12/16 03:48:50;;;;;;;13.38;9.50;;;;;7.30;100956.00;;;;5079349;28;20190;-73
2022/12/16 03:51:19;;;;;;;14.50;9.85;;;;;7.30;100958.00;;;;5072207;28;20191;-73
2022/12/16 03:53:47;;;;;;;16.00;10.25;;;;;7.30;100958.00;;;;5080213;28;20195;-73
2022/12/16 03:56:15;;;;;;;15.25;10.27;;;;;7.30;100968.00;;;;5078431;28;20203;-73
2022/12/16 03:58:42;;;;;;;12.55;9.20;;;;;7.30;100974.00;;;;5070610;28;20202;-73
2022/12/16 04:01:10;;;;;;;16.05;10.35;;;;;7.40;100969.00;;;;5074668;28;20222;-73
2022/12/16 04:03:38;;;;;;;13.52;9.13;;;;;7.40;100969.00;;;;5070152;28;20198;-73
2022/12/16 04:06:06;;;;;;;18.77;10.82;;;;;7.40;100969.00;;;;5073523;28;20206;-74
2022/12/16 04:08:35;;;;;;;15.00;9.68;;;;;7.40;100975.00;;;;5070637;28;20194;-74
2022/12/16 04:25:01;;;;;;;14.75;9.90;;;;;7.50;100979.00;;;;5080840;28;20242;-73
2022/12/16 04:27:29;;;;;;;16.77;10.52;;;;;7.50;100987.00;;;;5077557;28;20190;-73
